createdAt,value
2019-05-05T00:01:46.429Z,76.80
2019-05-05T00:04:19.231Z,77.20
2019-05-05T00:06:48.066Z,78.70
2019-05-05T00:09:17.848Z,78.50
2019-05-05T00:12:05.292Z,78.20
2019-05-05T00:14:44.266Z,78.20
2019-05-05T00:17:21.700Z,79.40
2019-05-05T00:19:50.294Z,78.80
2019-05-05T00:22:18.841Z,79.10
2019-05-05T00:24:47.304Z,79.10
2019-05-05T00:27:15.739Z,79.30
2019-05-05T00:29:45.323Z,79.70
2019-05-05T00:32:15.329Z,79.70
2019-05-05T00:34:44.535Z,80.10
2019-05-05T00:37:15.241Z,80.00
2019-05-05T00:39:45.726Z,79.80
2019-05-05T00:42:15.522Z,79.90
2019-05-05T00:44:44.768Z,80.10
2019-05-05T00:47:21.056Z,80.10
2019-05-05T00:49:51.159Z,80.20
2019-05-05T00:52:19.638Z,80.50
2019-05-05T00:54:48.076Z,80.90
2019-05-05T00:57:16.524Z,80.80
2019-05-05T00:59:45.309Z,81.00
2019-05-05T01:02:25.256Z,81.10
2019-05-05T01:04:58.229Z,80.90
2019-05-05T01:07:26.820Z,81.10
2019-05-05T01:09:58.388Z,81.00
2019-05-05T01:12:27.156Z,81.10
2019-05-05T01:14:55.637Z,81.20
2019-05-05T01:17:25.272Z,81.40
2019-05-05T01:20:03.291Z,81.40
2019-05-05T01:22:24.995Z,81.50
2019-05-05T01:24:55.464Z,81.60
2019-05-05T01:27:25.375Z,81.30
2019-05-05T01:29:54.908Z,81.30
2019-05-05T01:32:27.983Z,81.20
2019-05-05T01:34:56.482Z,81.50
2019-05-05T01:37:35.775Z,81.40
2019-05-05T01:40:09.476Z,81.40
2019-05-05T01:42:37.369Z,81.60
2019-05-05T01:45:06.193Z,82.20
2019-05-05T01:47:34.816Z,82.20
2019-05-05T01:50:17.716Z,82.10
2019-05-05T01:52:35.712Z,82.20
2019-05-05T01:55:06.098Z,82.00
2019-05-05T01:57:34.988Z,82.00
2019-05-05T02:00:05.551Z,82.00
2019-05-05T02:02:35.804Z,82.00
2019-05-05T02:05:08.995Z,82.30
2019-05-05T02:07:37.452Z,82.20
2019-05-05T02:10:07.949Z,82.30
2019-05-05T02:12:36.551Z,82.20
2019-05-05T02:15:07.191Z,82.20
2019-05-05T02:17:35.753Z,82.20
2019-05-05T02:20:05.795Z,82.30
2019-05-05T02:22:35.650Z,82.60
2019-05-05T02:25:07.428Z,82.60
2019-05-05T02:27:35.959Z,82.80
2019-05-05T02:30:26.675Z,82.60
2019-05-05T02:32:58.640Z,82.60
2019-05-05T02:35:27.237Z,82.40
2019-05-05T02:37:56.053Z,82.50
2019-05-05T02:40:25.058Z,82.30
2019-05-05T02:42:54.892Z,82.30
2019-05-05T02:45:36.315Z,82.40
2019-05-05T02:48:07.602Z,82.20
2019-05-05T02:50:59.808Z,82.00
2019-05-05T02:53:24.814Z,82.00
2019-05-05T02:55:56.341Z,82.00
2019-05-05T02:58:26.241Z,81.90
2019-05-05T03:00:58.417Z,81.80
2019-05-05T03:03:27.823Z,81.90
2019-05-05T03:05:58.392Z,82.00
2019-05-05T03:08:27.903Z,81.90
2019-05-05T03:11:00.045Z,82.00
2019-05-05T03:13:33.682Z,82.00
2019-05-05T03:16:17.607Z,82.20
2019-05-05T03:18:46.971Z,82.20
2019-05-05T03:21:16.229Z,82.00
2019-05-05T03:23:45.191Z,81.90
2019-05-05T03:26:15.969Z,82.50
2019-05-05T03:28:48.609Z,81.60
2019-05-05T03:31:19.204Z,81.60
2019-05-05T03:33:48.014Z,81.70
2019-05-05T03:36:16.911Z,81.80
2019-05-05T03:38:46.340Z,82.00
2019-05-05T03:41:34.452Z,81.90
2019-05-05T03:44:10.827Z,82.00
2019-05-05T03:46:39.903Z,82.30
2019-05-05T03:49:11.145Z,82.40
2019-05-05T03:51:41.370Z,82.70
2019-05-05T03:54:14.421Z,83.00
2019-05-05T03:56:44.150Z,83.60
2019-05-05T03:59:14.068Z,83.70
2019-05-05T04:01:56.871Z,84.10
2019-05-05T04:04:29.690Z,84.10
2019-05-05T04:06:58.728Z,84.20
2019-05-05T04:09:27.360Z,84.20
2019-05-05T04:11:59.709Z,84.80
2019-05-05T04:14:29.476Z,83.90
2019-05-05T04:16:59.608Z,83.80
2019-05-05T04:19:46.203Z,83.80
2019-05-05T04:22:16.835Z,84.00
2019-05-05T04:24:45.594Z,84.10
2019-05-05T04:27:14.616Z,84.10
2019-05-05T04:29:45.238Z,84.00
2019-05-05T04:32:14.568Z,84.00
2019-05-05T04:34:43.879Z,84.30
2019-05-05T04:37:14.683Z,84.10
2019-05-05T04:39:44.385Z,83.90
2019-05-05T04:42:14.060Z,83.60
2019-05-05T04:44:44.774Z,83.50
2019-05-05T04:47:14.676Z,83.30
2019-05-05T04:49:47.430Z,83.20
2019-05-05T04:52:17.658Z,83.30
2019-05-05T04:54:48.179Z,83.30
2019-05-05T04:57:17.105Z,83.20
2019-05-05T04:59:46.764Z,83.00
2019-05-05T05:02:34.108Z,82.90
2019-05-05T05:05:07.044Z,82.80
2019-05-05T05:07:35.575Z,82.80
2019-05-05T05:10:08.110Z,82.70
2019-05-05T05:12:36.817Z,82.70
2019-05-05T05:15:09.392Z,82.60
2019-05-05T05:17:39.525Z,82.50
2019-05-05T05:20:09.676Z,82.60
2019-05-05T05:22:38.166Z,82.50
2019-05-05T05:25:09.684Z,82.60
2019-05-05T05:27:38.160Z,82.40
2019-05-05T05:30:09.562Z,82.40
2019-05-05T05:32:39.832Z,82.40
2019-05-05T05:35:08.197Z,82.30
2019-05-05T05:37:36.839Z,82.30
2019-05-05T05:40:08.268Z,82.30
2019-05-05T05:42:37.032Z,82.00
2019-05-05T05:45:14.695Z,81.90
2019-05-05T05:48:01.338Z,81.50
2019-05-05T05:50:37.536Z,81.40
2019-05-05T05:53:05.996Z,81.60
2019-05-05T05:55:34.570Z,80.60
2019-05-05T05:58:04.808Z,80.20
2019-05-05T06:00:34.446Z,80.10
2019-05-05T06:03:03.963Z,79.60
2019-05-05T06:05:34.361Z,79.50
2019-05-05T06:08:04.702Z,79.60
2019-05-05T06:10:33.903Z,79.40
2019-05-05T06:13:05.455Z,79.10
2019-05-05T06:15:35.415Z,79.10
2019-05-05T06:18:04.811Z,79.20
2019-05-05T06:20:35.113Z,79.00
2019-05-05T06:23:04.184Z,78.60
2019-05-05T06:25:34.302Z,78.30
2019-05-05T06:28:04.641Z,78.20
2019-05-05T06:30:33.626Z,78.10
2019-05-05T06:33:04.693Z,78.10
2019-05-05T06:35:33.827Z,78.20
2019-05-05T06:38:04.501Z,77.90
2019-05-05T06:40:53.728Z,78.10
2019-05-05T06:43:28.216Z,78.20
2019-05-05T06:46:14.780Z,78.10
2019-05-05T06:48:43.838Z,78.10
2019-05-05T06:51:14.039Z,78.30
2019-05-05T06:53:43.519Z,78.20
2019-05-05T06:56:14.539Z,78.00
2019-05-05T06:58:44.799Z,77.80
2019-05-05T07:01:14.269Z,77.40
2019-05-05T07:03:43.843Z,77.00
2019-05-05T07:06:14.164Z,76.60
2019-05-05T07:08:43.876Z,76.40
2019-05-05T07:11:14.364Z,75.90
2019-05-05T07:13:44.275Z,75.30
2019-05-05T07:16:15.021Z,74.90
2019-05-05T07:18:46.665Z,74.70
2019-05-05T07:21:15.420Z,74.40
2019-05-05T07:23:44.647Z,74.20
2019-05-05T07:26:14.376Z,74.40
2019-05-05T07:28:44.882Z,74.50
2019-05-05T07:31:14.371Z,75.20
2019-05-05T07:33:44.354Z,74.60
2019-05-05T07:36:16.026Z,74.80
2019-05-05T07:38:46.363Z,74.80
2019-05-05T07:41:14.956Z,74.20
2019-05-05T07:43:43.800Z,74.00
2019-05-05T07:46:15.390Z,73.70
2019-05-05T07:48:51.358Z,73.90
2019-05-05T07:51:19.822Z,73.50
2019-05-05T07:53:48.311Z,73.50
2019-05-05T07:56:18.384Z,73.50
2019-05-05T07:58:46.880Z,73.00
2019-05-05T08:01:15.891Z,71.90
2019-05-05T08:03:44.719Z,71.10
2019-05-05T08:06:14.510Z,71.30
2019-05-05T08:08:44.293Z,71.20
2019-05-05T08:11:14.710Z,71.30
2019-05-05T08:13:44.353Z,70.40
2019-05-05T08:16:33.665Z,70.20
2019-05-05T08:19:13.771Z,69.30
2019-05-05T08:21:43.740Z,67.30
2019-05-05T08:24:14.439Z,66.60
2019-05-05T08:26:47.786Z,66.20
2019-05-05T08:29:34.745Z,66.60
2019-05-05T08:32:18.264Z,66.80
2019-05-05T08:34:57.460Z,65.50
2019-05-05T08:37:17.820Z,64.20
2019-05-05T08:39:47.979Z,64.50
2019-05-05T08:42:16.445Z,66.20
2019-05-05T08:44:44.993Z,68.30
2019-05-05T08:47:15.061Z,70.00
2019-05-05T08:49:44.280Z,71.40
2019-05-05T08:52:14.528Z,72.10
2019-05-05T08:54:44.622Z,72.70
2019-05-05T08:57:14.629Z,72.50
2019-05-05T08:59:44.020Z,72.70
2019-05-05T09:02:14.784Z,72.60
2019-05-05T09:04:44.818Z,72.10
2019-05-05T09:07:13.850Z,72.30
2019-05-05T09:09:44.167Z,72.10
2019-05-05T09:12:13.963Z,72.30
2019-05-05T09:14:45.064Z,72.50
2019-05-05T09:17:13.788Z,71.20
2019-05-05T09:19:44.715Z,71.20
2019-05-05T09:22:14.089Z,71.00
2019-05-05T09:24:47.213Z,71.00
2019-05-05T09:27:33.885Z,70.80
2019-05-05T09:30:03.907Z,70.10
2019-05-05T09:32:34.392Z,69.40
2019-05-05T09:35:04.722Z,68.90
2019-05-05T09:37:34.083Z,68.60
2019-05-05T09:40:04.845Z,68.30
2019-05-05T09:42:34.177Z,67.80
2019-05-05T09:45:04.774Z,67.00
2019-05-05T09:47:34.387Z,66.80
2019-05-05T09:50:05.191Z,65.20
2019-05-05T09:52:33.897Z,63.40
2019-05-05T09:55:04.017Z,62.10
2019-05-05T09:57:34.401Z,63.00
2019-05-05T10:00:09.687Z,64.70
2019-05-05T10:02:44.128Z,66.30
2019-05-05T10:05:14.657Z,66.50
2019-05-05T10:07:44.251Z,67.40
2019-05-05T10:10:13.829Z,67.90
2019-05-05T10:12:44.531Z,68.90
2019-05-05T10:15:13.985Z,69.80
2019-05-05T10:17:43.389Z,69.80
2019-05-05T10:20:14.401Z,69.70
2019-05-05T10:22:43.846Z,70.40
2019-05-05T10:25:30.823Z,70.50
2019-05-05T10:27:59.352Z,70.20
2019-05-05T10:30:27.844Z,69.50
2019-05-05T10:32:56.431Z,69.90
2019-05-05T10:35:24.919Z,69.10
2019-05-05T10:37:54.443Z,68.20
2019-05-05T10:40:34.155Z,67.00
2019-05-05T10:43:04.392Z,67.20
2019-05-05T10:45:33.382Z,66.80
2019-05-05T10:48:03.884Z,65.70
2019-05-05T10:50:34.057Z,65.60
2019-05-05T10:53:04.558Z,65.30
2019-05-05T10:55:34.698Z,65.40
2019-05-05T10:58:03.042Z,63.50
2019-05-05T11:00:50.511Z,63.40
2019-05-05T11:03:20.268Z,63.30
2019-05-05T11:05:48.795Z,62.90
2019-05-05T11:08:17.397Z,62.60
2019-05-05T11:10:45.861Z,62.70
2019-05-05T11:13:14.363Z,62.90
2019-05-05T11:15:44.535Z,61.90
2019-05-05T11:18:14.902Z,60.80
2019-05-05T11:20:44.800Z,60.60
2019-05-05T11:23:14.847Z,60.40
2019-05-05T11:25:44.333Z,59.80
2019-05-05T11:28:13.114Z,59.30
2019-05-05T11:30:44.679Z,59.60
2019-05-05T11:33:30.960Z,59.20
2019-05-05T11:36:13.612Z,58.40
2019-05-05T11:38:44.382Z,57.60
2019-05-05T11:41:14.352Z,57.40
2019-05-05T11:43:42.766Z,55.60
2019-05-05T11:46:11.264Z,54.60
2019-05-05T11:48:39.789Z,53.80
2019-05-05T11:51:08.386Z,54.20
2019-05-05T11:53:37.462Z,54.30
2019-05-05T11:56:06.188Z,53.90
2019-05-05T11:58:34.730Z,53.90
2019-05-05T12:01:03.868Z,53.50
2019-05-05T12:03:33.949Z,52.00
2019-05-05T12:06:04.115Z,50.70
2019-05-05T12:08:34.579Z,51.10
2019-05-05T12:11:08.856Z,50.80
2019-05-05T12:13:37.325Z,50.10
2019-05-05T12:16:10.590Z,50.30
2019-05-05T12:18:39.805Z,49.60
2019-05-05T12:21:08.493Z,48.70
2019-05-05T12:23:39.363Z,48.70
2019-05-05T12:26:10.306Z,48.40
2019-05-05T12:28:46.624Z,49.10
2019-05-05T12:31:19.370Z,48.50
2019-05-05T12:33:48.234Z,48.00
2019-05-05T12:36:16.696Z,47.90
2019-05-05T12:38:46.648Z,47.70
2019-05-05T12:41:16.030Z,47.20
2019-05-05T12:43:46.150Z,48.00
2019-05-05T12:46:33.738Z,47.00
2019-05-05T12:49:04.748Z,47.00
2019-05-05T12:51:34.308Z,48.10
2019-05-05T12:54:04.653Z,46.40
2019-05-05T12:56:34.299Z,46.10
2019-05-05T12:59:04.467Z,46.50
2019-05-05T13:01:37.440Z,46.60
2019-05-05T13:04:06.092Z,46.50
2019-05-05T13:06:34.750Z,46.00
2019-05-05T13:09:07.090Z,45.30
2019-05-05T13:11:36.006Z,44.60
2019-05-05T13:14:05.315Z,44.50
2019-05-05T13:16:33.815Z,43.30
2019-05-05T13:19:04.425Z,42.80
2019-05-05T13:21:36.789Z,43.50
2019-05-05T13:24:23.814Z,44.20
2019-05-05T13:27:08.546Z,43.70
2019-05-05T13:29:33.864Z,43.00
2019-05-05T13:32:03.696Z,42.40
2019-05-05T13:34:32.821Z,41.30
2019-05-05T13:37:03.598Z,42.00
2019-05-05T13:39:34.046Z,43.10
2019-05-05T13:42:04.539Z,43.20
2019-05-05T13:44:50.168Z,43.60
2019-05-05T13:47:18.625Z,43.50
2019-05-05T13:49:47.097Z,43.30
2019-05-05T13:52:15.713Z,42.10
2019-05-05T13:54:45.499Z,41.70
2019-05-05T13:57:14.502Z,41.40
2019-05-05T13:59:44.602Z,40.90
2019-05-05T14:02:18.077Z,40.50
2019-05-05T14:04:45.765Z,40.00
2019-05-05T14:07:14.240Z,41.10
2019-05-05T14:09:44.177Z,43.50
2019-05-05T14:12:14.663Z,44.60
2019-05-05T14:14:44.055Z,46.00
2019-05-05T14:17:14.619Z,47.50
2019-05-05T14:19:44.555Z,48.60
2019-05-05T14:22:14.895Z,49.10
2019-05-05T14:24:46.155Z,49.60
2019-05-05T14:27:14.674Z,49.90
2019-05-05T14:29:52.970Z,49.80
2019-05-05T14:32:24.008Z,49.60
2019-05-05T14:34:54.670Z,49.20
2019-05-05T14:37:40.018Z,47.60
2019-05-05T14:40:08.814Z,47.30
2019-05-05T14:42:37.309Z,46.30
2019-05-05T14:45:06.823Z,45.80
2019-05-05T14:47:35.422Z,44.90
2019-05-05T14:50:06.225Z,43.90
2019-05-05T14:52:35.291Z,44.20
2019-05-05T14:55:05.183Z,45.00
2019-05-05T14:57:33.735Z,46.70
2019-05-05T15:00:04.550Z,47.90
2019-05-05T15:02:35.066Z,48.20
2019-05-05T15:05:14.139Z,48.80
2019-05-05T15:07:44.417Z,49.40
2019-05-05T15:10:31.413Z,49.30
2019-05-05T15:13:01.581Z,48.30
2019-05-05T15:15:31.351Z,48.40
2019-05-05T15:17:59.840Z,49.10
2019-05-05T15:20:29.184Z,48.70
2019-05-05T15:22:59.172Z,48.00
2019-05-05T15:25:27.700Z,47.50
2019-05-05T15:27:58.957Z,47.80
2019-05-05T15:30:29.024Z,48.20
2019-05-05T15:32:57.748Z,48.70
2019-05-05T15:35:26.248Z,49.50
2019-05-05T15:37:55.870Z,50.00
2019-05-05T15:40:24.815Z,49.60
2019-05-05T15:42:54.464Z,49.30
2019-05-05T15:45:25.053Z,45.90
2019-05-05T15:47:54.082Z,43.90
2019-05-05T15:50:22.927Z,42.40
2019-05-05T15:52:54.347Z,41.90
2019-05-05T15:55:24.550Z,41.70
2019-05-05T15:57:53.520Z,42.00
2019-05-05T16:00:22.272Z,42.10
2019-05-05T16:02:51.688Z,42.60
2019-05-05T16:05:20.628Z,43.20
2019-05-05T16:07:49.146Z,43.60
2019-05-05T16:10:18.186Z,44.50
2019-05-05T16:12:46.849Z,45.30
2019-05-05T16:15:20.679Z,46.00
2019-05-05T16:17:50.816Z,45.80
2019-05-05T16:20:20.936Z,45.10
2019-05-05T16:22:54.182Z,44.50
2019-05-05T16:25:23.079Z,44.60
2019-05-05T16:27:51.614Z,45.60
2019-05-05T16:30:20.413Z,46.60
2019-05-05T16:32:48.990Z,47.20
2019-05-05T16:35:19.056Z,47.80
2019-05-05T16:37:48.694Z,48.20
2019-05-05T16:40:18.996Z,48.90
2019-05-05T16:42:47.633Z,49.40
2019-05-05T16:45:16.719Z,48.80
2019-05-05T16:47:45.271Z,49.10
2019-05-05T16:50:14.685Z,49.50
2019-05-05T16:53:03.941Z,49.50
2019-05-05T16:55:44.887Z,49.60
2019-05-05T16:58:14.009Z,49.90
2019-05-05T17:00:44.110Z,50.30
2019-05-05T17:03:13.497Z,50.50
2019-05-05T17:05:46.387Z,50.70
2019-05-05T17:08:13.957Z,51.10
2019-05-05T17:10:43.524Z,51.50
2019-05-05T17:13:15.342Z,51.60
2019-05-05T17:15:53.621Z,51.30
2019-05-05T17:18:35.289Z,50.80
2019-05-05T17:21:01.171Z,50.30
2019-05-05T17:23:29.615Z,50.00
2019-05-05T17:25:58.165Z,50.10
2019-05-05T17:28:26.640Z,49.20
2019-05-05T17:30:55.180Z,47.30
2019-05-05T17:33:24.175Z,45.50
2019-05-05T17:35:53.913Z,43.60
2019-05-05T17:38:24.420Z,42.60
2019-05-05T17:40:54.803Z,42.10
2019-05-05T17:43:39.966Z,41.20
2019-05-05T17:46:24.135Z,40.40
2019-05-05T17:48:56.470Z,40.80
2019-05-05T17:51:31.329Z,41.80
2019-05-05T17:54:01.476Z,43.10
2019-05-05T17:56:29.959Z,44.70
2019-05-05T17:58:58.475Z,46.00
2019-05-05T18:01:26.963Z,47.30
2019-05-05T18:03:55.434Z,48.00
2019-05-05T18:06:25.533Z,48.70
2019-05-05T18:08:55.631Z,49.50
2019-05-05T18:11:44.070Z,50.00
2019-05-05T18:14:29.121Z,50.30
2019-05-05T18:16:57.675Z,50.40
2019-05-05T18:19:26.209Z,50.60
2019-05-05T18:21:55.652Z,50.80
2019-05-05T18:24:24.443Z,51.20
2019-05-05T18:26:53.674Z,51.50
2019-05-05T18:29:24.158Z,52.00
2019-05-05T18:31:53.546Z,52.20
2019-05-05T18:34:23.613Z,52.60
2019-05-05T18:36:54.205Z,52.70
2019-05-05T18:39:24.614Z,52.80
2019-05-05T18:42:00.438Z,52.90
2019-05-05T18:44:36.354Z,53.80
2019-05-05T18:47:15.714Z,53.20
2019-05-05T18:49:42.353Z,53.40
2019-05-05T18:52:15.938Z,53.60
2019-05-05T18:54:43.857Z,53.80
2019-05-05T18:57:12.784Z,54.10
2019-05-05T18:59:41.333Z,54.20
2019-05-05T19:02:27.749Z,54.30
2019-05-05T19:05:15.879Z,54.50
2019-05-05T19:07:55.201Z,54.70
2019-05-05T19:10:16.507Z,55.10
2019-05-05T19:12:44.963Z,55.40
2019-05-05T19:15:13.829Z,55.80
2019-05-05T19:17:42.378Z,56.00
2019-05-05T19:20:14.557Z,56.30
2019-05-05T19:22:43.607Z,56.60
2019-05-05T19:25:15.607Z,56.80
2019-05-05T19:27:46.128Z,56.90
2019-05-05T19:30:16.406Z,56.90
2019-05-05T19:32:45.599Z,56.90
2019-05-05T19:35:14.180Z,57.10
2019-05-05T19:37:44.526Z,57.30
2019-05-05T19:40:14.249Z,57.40
2019-05-05T19:42:46.053Z,57.60
2019-05-05T19:45:13.710Z,57.90
2019-05-05T19:47:43.831Z,58.10
2019-05-05T19:50:14.420Z,58.50
2019-05-05T19:52:46.615Z,58.60
2019-05-05T19:55:14.888Z,58.80
2019-05-05T19:57:44.600Z,58.70
2019-05-05T20:00:14.564Z,58.70
2019-05-05T20:02:43.820Z,58.80
2019-05-05T20:05:14.274Z,58.80
2019-05-05T20:07:44.658Z,58.80
2019-05-05T20:10:14.737Z,58.80
2019-05-05T20:12:44.852Z,59.00
2019-05-05T20:15:15.636Z,59.00
2019-05-05T20:17:44.588Z,59.10
2019-05-05T20:20:14.005Z,59.10
2019-05-05T20:22:44.419Z,59.10
2019-05-05T20:25:14.262Z,59.20
2019-05-05T20:27:42.786Z,59.10
2019-05-05T20:30:14.090Z,59.20
2019-05-05T20:32:56.076Z,59.30
2019-05-05T20:35:36.426Z,59.40
2019-05-05T20:38:09.216Z,59.50
2019-05-05T20:40:39.384Z,59.80
2019-05-05T20:43:14.355Z,60.10
2019-05-05T20:45:45.503Z,60.30
2019-05-05T20:48:13.949Z,60.40
2019-05-05T20:50:43.869Z,60.40
2019-05-05T20:53:15.620Z,60.50
2019-05-05T20:55:44.741Z,60.50
2019-05-05T20:58:14.131Z,61.50
2019-05-05T21:00:44.790Z,61.00
2019-05-05T21:03:14.239Z,61.10
2019-05-05T21:05:44.000Z,61.20
2019-05-05T21:08:14.152Z,61.30
2019-05-05T21:10:44.219Z,61.40
2019-05-05T21:13:14.390Z,61.50
2019-05-05T21:15:45.012Z,61.50
2019-05-05T21:18:14.327Z,61.70
2019-05-05T21:20:43.285Z,61.90
2019-05-05T21:23:29.682Z,62.20
2019-05-05T21:26:16.063Z,62.30
2019-05-05T21:28:46.307Z,62.40
2019-05-05T21:31:14.746Z,62.60
2019-05-05T21:33:45.152Z,62.70
2019-05-05T21:36:14.675Z,62.90
2019-05-05T21:38:43.945Z,62.90
2019-05-05T21:41:13.798Z,63.00
2019-05-05T21:43:44.718Z,63.20
2019-05-05T21:46:13.261Z,63.20
2019-05-05T21:48:42.159Z,63.40
2019-05-05T21:51:18.353Z,63.50
2019-05-05T21:54:04.720Z,63.50
2019-05-05T21:56:40.856Z,63.60
2019-05-05T21:59:09.304Z,63.70
2019-05-05T22:01:40.339Z,63.60
2019-05-05T22:04:08.898Z,63.70
2019-05-05T22:06:37.364Z,63.80
2019-05-05T22:09:08.324Z,63.80
2019-05-05T22:11:37.078Z,63.90
2019-05-05T22:14:05.558Z,64.10
2019-05-05T22:16:35.608Z,64.10
2019-05-05T22:19:05.663Z,64.20
2019-05-05T22:21:40.799Z,64.30
2019-05-05T22:24:15.846Z,64.40
2019-05-05T22:26:44.828Z,65.20
2019-05-05T22:29:17.023Z,64.70
2019-05-05T22:31:51.101Z,64.80
2019-05-05T22:34:19.565Z,65.10
2019-05-05T22:36:48.164Z,65.50
2019-05-05T22:39:17.166Z,65.70
2019-05-05T22:41:46.133Z,65.70
2019-05-05T22:44:14.577Z,65.90
2019-05-05T22:46:43.215Z,66.30
2019-05-05T22:49:14.562Z,66.60
2019-05-05T22:51:44.513Z,66.70
2019-05-05T22:54:14.859Z,66.90
2019-05-05T22:56:44.819Z,67.30
2019-05-05T22:59:13.962Z,67.70
2019-05-05T23:01:42.692Z,67.90
2019-05-05T23:04:15.503Z,68.10
2019-05-05T23:06:45.688Z,67.90
2019-05-05T23:09:14.808Z,68.10
2019-05-05T23:11:44.100Z,68.00
2019-05-05T23:14:27.511Z,67.90
2019-05-05T23:17:01.159Z,68.80
2019-05-05T23:19:37.239Z,67.90
2019-05-05T23:22:25.319Z,68.00
2019-05-05T23:25:04.209Z,68.30
2019-05-05T23:27:48.892Z,68.30
2019-05-05T23:30:20.746Z,68.30
2019-05-05T23:32:49.252Z,68.00
2019-05-05T23:35:18.652Z,67.90
2019-05-05T23:37:47.662Z,67.80
2019-05-05T23:40:28.034Z,67.70
2019-05-05T23:42:56.570Z,67.70
2019-05-05T23:45:25.152Z,67.70
2019-05-05T23:47:54.485Z,67.70
2019-05-05T23:50:24.305Z,67.70
2019-05-05T23:52:54.577Z,67.70
2019-05-05T23:55:23.933Z,67.80
2019-05-05T23:57:54.665Z,67.90
